Mucum, Brazil
Current Conditions -  °F | °C
As of 12:00 AM on Saturday 20 Dec 2014 (Local Time) from SBCO Reporting Station
Clear Clear  
Wind Chill: 72°   Ceiling: Unl
Heat Index: 72°   Visibility: 6mi
Dew Point: 70°   Wind: 8mph
Humidity: 94%   Direction: 130°SE
Pressure: 29.74"   Gusts: NA
Location:  29.17°S, 51.87°W
Report Text: SBCO 200200Z 13007KT CAVOK 22/21 Q1007
Loading
Personal Weather Stations






























Interactive Weather Map New forecast layout! Learn more

10-Day Weather Forecast

Advertisements
Track Severe Weather on mobile